Time;durP1;ratioP1;P1;durP2;ratioP2;P2;SDS_P1;SDS_P2;PMS_P1;PMS_P2;Temp;Humidity;BMP_temperature;BMP_pressure;BME280_temperature;BME280_humidity;BME280_pressure;Samples;Min_cycle;Max_cycle;Signal;HPM_P1;HPM_P2
2021/09/28 00:02:14;;;;;;;2.78;1.10;;;21.20;87.70;;;;;;5012329;28;20025;-78
2021/09/28 00:04:40;;;;;;;3.13;1.00;;;21.20;87.60;;;;;;5012272;28;20512;-78
2021/09/28 00:07:06;;;;;;;2.95;0.93;;;21.20;88.00;;;;;;5012735;28;20389;-78
2021/09/28 00:09:31;;;;;;;3.00;0.90;;;21.20;87.80;;;;;;5012466;28;20456;-78
2021/09/28 00:11:57;;;;;;;4.45;1.13;;;21.20;87.60;;;;;;5012241;28;20022;-78
2021/09/28 00:14:24;;;;;;;2.80;0.75;;;21.20;87.70;;;;;;5012790;28;20025;-78
2021/09/28 00:16:50;;;;;;;4.00;1.05;;;21.20;87.80;;;;;;5011410;28;20010;-78
2021/09/28 00:19:16;;;;;;;3.00;1.00;;;21.20;87.80;;;;;;5012235;28;20045;-78
2021/09/28 00:21:43;;;;;;;2.47;0.63;;;21.20;87.40;;;;;;5012250;28;20026;-78
2021/09/28 00:24:09;;;;;;;1.92;0.80;;;21.10;87.20;;;;;;5012273;28;20029;-78
2021/09/28 00:26:35;;;;;;;7.80;0.90;;;21.10;87.20;;;;;;5011698;28;20509;-78
2021/09/28 00:29:01;;;;;;;4.88;1.38;;;21.10;87.10;;;;;;5012284;28;20034;-78
2021/09/28 00:31:27;;;;;;;3.58;0.82;;;21.10;87.10;;;;;;5011379;28;20061;-78
2021/09/28 00:33:52;;;;;;;3.55;0.90;;;21.10;86.90;;;;;;5012463;28;20517;-78
2021/09/28 00:36:22;;;;;;;3.38;1.30;;;21.10;86.80;;;;;;5012173;28;20021;-78
2021/09/28 00:38:48;;;;;;;3.60;0.75;;;21.10;86.80;;;;;;5011774;28;20157;-78
2021/09/28 00:41:14;;;;;;;3.30;0.73;;;21.10;86.70;;;;;;5012095;28;20025;-78
2021/09/28 00:43:45;;;;;;;4.07;1.00;;;21.10;86.50;;;;;;5043404;28;20022;-78
2021/09/28 00:46:11;;;;;;;2.47;0.63;;;21.10;86.70;;;;;;5011756;28;20100;-77
2021/09/28 00:48:36;;;;;;;3.53;0.88;;;21.00;86.30;;;;;;5011303;28;20046;-78
2021/09/28 00:51:02;;;;;;;5.07;1.30;;;21.00;86.20;;;;;;5011664;28;20034;-78
2021/09/28 00:53:28;;;;;;;2.78;0.77;;;21.00;86.10;;;;;;5011379;28;20018;-78
2021/09/28 00:55:54;;;;;;;2.72;0.80;;;21.00;86.00;;;;;;5011788;28;20065;-78
2021/09/28 00:58:19;;;;;;;1.90;0.88;;;21.00;86.00;;;;;;5011638;28;20036;-78
2021/09/28 01:00:45;;;;;;;3.63;1.00;;;21.00;86.00;;;;;;5026561;28;20873;-78
2021/09/28 01:03:12;;;;;;;3.15;1.00;;;21.00;85.90;;;;;;5011090;28;20057;-78
2021/09/28 01:05:37;;;;;;;3.70;1.05;;;21.00;86.10;;;;;;5011227;28;20048;-78
2021/09/28 01:08:03;;;;;;;2.95;0.93;;;21.00;85.60;;;;;;5011376;28;20029;-78
2021/09/28 01:10:29;;;;;;;2.60;0.80;;;21.00;85.60;;;;;;5011528;28;20025;-78
2021/09/28 01:12:55;;;;;;;4.60;1.05;;;21.00;85.60;;;;;;5026868;28;20401;-78
2021/09/28 01:15:20;;;;;;;3.58;0.80;;;20.90;85.60;;;;;;5011555;28;20018;-79
2021/09/28 01:17:46;;;;;;;4.07;1.20;;;21.00;85.80;;;;;;5010850;28;20088;-78
2021/09/28 01:20:12;;;;;;;2.40;0.75;;;20.90;86.50;;;;;;5011318;28;20025;-79
2021/09/28 01:22:38;;;;;;;2.20;0.80;;;21.00;86.00;;;;;;5010852;28;20065;-79
2021/09/28 01:25:04;;;;;;;4.00;0.75;;;20.90;85.60;;;;;;5011353;28;20041;-78
2021/09/28 01:27:36;;;;;;;2.85;0.82;;;20.90;85.40;;;;;;5011137;28;20021;-78
2021/09/28 01:30:04;;;;;;;2.50;0.60;;;20.90;85.20;;;;;;5011508;28;20476;-78
2021/09/28 01:32:30;;;;;;;7.38;0.85;;;20.90;85.30;;;;;;5010772;28;20030;-78
2021/09/28 01:34:56;;;;;;;1.85;0.75;;;20.90;85.60;;;;;;5011412;28;20022;-78
2021/09/28 01:37:21;;;;;;;3.05;1.15;;;20.90;85.30;;;;;;5011270;28;20038;-78
2021/09/28 01:39:47;;;;;;;2.22;0.85;;;20.90;85.30;;;;;;5011096;28;20401;-78
2021/09/28 01:42:12;;;;;;;3.03;0.93;;;20.90;85.30;;;;;;5011269;28;20107;-78
2021/09/28 01:44:38;;;;;;;2.88;0.60;;;20.90;85.30;;;;;;5042592;28;20021;-78
2021/09/28 01:47:04;;;;;;;2.78;0.77;;;20.90;85.10;;;;;;5010614;28;20034;-78
2021/09/28 01:49:30;;;;;;;3.65;1.05;;;20.90;85.00;;;;;;5011134;28;20026;-78
2021/09/28 01:51:55;;;;;;;3.30;0.75;;;20.90;85.20;;;;;;5011426;28;20021;-78
2021/09/28 01:54:21;;;;;;;2.90;0.77;;;20.90;85.00;;;;;;5011511;28;20026;-77
2021/09/28 01:56:47;;;;;;;2.83;0.82;;;20.80;85.00;;;;;;5010755;28;20026;-78
2021/09/28 01:59:12;;;;;;;3.10;0.90;;;20.80;85.10;;;;;;5011163;28;20025;-78
2021/09/28 02:01:38;;;;;;;2.08;0.70;;;20.80;85.30;;;;;;5013604;28;20022;-80
2021/09/28 02:04:04;;;;;;;3.25;0.88;;;20.80;84.90;;;;;;5009567;28;20022;-80
2021/09/28 02:06:35;;;;;;;2.35;0.63;;;20.80;85.10;;;;;;5010024;28;20069;-79
2021/09/28 02:09:02;;;;;;;3.97;1.20;;;20.80;84.60;;;;;;5014417;28;20031;-80
2021/09/28 02:11:28;;;;;;;2.97;0.70;;;20.80;84.50;;;;;;5014455;28;20030;-79
2021/09/28 02:13:54;;;;;;;3.50;1.02;;;20.80;84.50;;;;;;5014523;28;20554;-79
2021/09/28 02:16:20;;;;;;;1.98;0.57;;;20.80;84.50;;;;;;5014229;28;20539;-78
2021/09/28 02:18:46;;;;;;;2.17;0.80;;;20.80;84.60;;;;;;5013718;28;20034;-78
2021/09/28 02:21:11;;;;;;;2.78;0.57;;;20.80;84.80;;;;;;5014156;28;20069;-79
2021/09/28 02:23:37;;;;;;;3.78;0.73;;;20.80;84.20;;;;;;5014284;28;20390;-79
2021/09/28 02:26:03;;;;;;;2.50;0.63;;;20.80;84.50;;;;;;5013861;28;20140;-79
2021/09/28 02:28:28;;;;;;;2.75;0.90;;;20.70;84.30;;;;;;5028780;28;20068;-79
2021/09/28 02:30:54;;;;;;;2.75;0.70;;;20.70;84.30;;;;;;5014319;28;20037;-79
2021/09/28 02:33:20;;;;;;;2.67;0.82;;;20.80;84.10;;;;;;5013333;28;20109;-79
2021/09/28 02:35:46;;;;;;;3.22;0.75;;;20.70;84.20;;;;;;5014114;28;20076;-79
2021/09/28 02:38:11;;;;;;;2.85;0.85;;;20.70;83.90;;;;;;5014243;28;20037;-79
2021/09/28 02:40:37;;;;;;;2.53;0.90;;;20.70;83.80;;;;;;5013788;28;20034;-79
2021/09/28 02:43:03;;;;;;;2.15;0.90;;;20.70;83.70;;;;;;5013963;28;20505;-80
2021/09/28 02:45:28;;;;;;;2.75;0.75;;;20.70;84.00;;;;;;5013735;28;20038;-79
2021/09/28 02:47:54;;;;;;;2.83;0.75;;;20.70;83.90;;;;;;5013166;28;20022;-79
2021/09/28 02:50:20;;;;;;;1.52;0.68;;;20.70;83.50;;;;;;5045971;28;20068;-81
2021/09/28 02:52:45;;;;;;;2.63;0.80;;;20.70;84.20;;;;;;5013349;28;20784;-81
2021/09/28 02:55:11;;;;;;;5.03;1.20;;;20.70;83.60;;;;;;5029364;28;20088;-81
2021/09/28 02:57:37;;;;;;;3.92;0.90;;;20.70;83.50;;;;;;5013533;28;20080;-80
2021/09/28 03:00:08;;;;;;;1.38;0.50;;;20.70;83.20;;;;;;5013569;28;20026;-80
2021/09/28 03:02:34;;;;;;;2.80;0.98;;;20.60;83.30;;;;;;5010870;28;20041;-80
2021/09/28 03:04:59;;;;;;;1.58;0.85;;;20.60;83.20;;;;;;5013515;28;20030;-80
2021/09/28 03:07:25;;;;;;;3.05;0.80;;;20.60;83.20;;;;;;5014014;28;20405;-80
2021/09/28 03:09:51;;;;;;;3.30;1.00;;;20.60;83.50;;;;;;5013936;28;20105;-80
2021/09/28 03:12:16;;;;;;;1.77;0.73;;;20.60;83.20;;;;;;5013536;28;20061;-80
2021/09/28 03:14:42;;;;;;;3.20;0.80;;;20.60;83.20;;;;;;5012884;28;20026;-80
2021/09/28 03:17:08;;;;;;;1.50;0.60;;;20.60;82.80;;;;;;5013283;28;20026;-80
2021/09/28 03:19:34;;;;;;;2.00;0.70;;;20.60;83.00;;;;;;5012764;28;20038;-80
2021/09/28 03:22:00;;;;;;;2.13;0.70;;;20.50;82.50;;;;;;5012925;28;20040;-80
2021/09/28 03:24:25;;;;;;;2.83;0.70;;;20.60;83.50;;;;;;5027467;28;20399;-80
2021/09/28 03:26:51;;;;;;;4.25;0.88;;;20.60;83.00;;;;;;5013357;28;20100;-79
2021/09/28 03:29:17;;;;;;;2.08;0.85;;;20.50;82.60;;;;;;5013044;28;20555;-80
2021/09/28 03:31:42;;;;;;;2.05;0.95;;;20.50;82.50;;;;;;5013043;28;20744;-79
2021/09/28 03:34:08;;;;;;;1.88;0.60;;;20.50;82.50;;;;;;5012822;28;20034;-79
2021/09/28 03:36:34;;;;;;;1.90;0.57;;;20.50;82.80;;;;;;5012944;28;20053;-79
2021/09/28 03:38:59;;;;;;;2.55;0.80;;;20.50;82.20;;;;;;5012854;28;20493;-79
2021/09/28 03:41:25;;;;;;;3.25;0.85;;;20.50;82.80;;;;;;5045342;28;20034;-79
2021/09/28 03:43:51;;;;;;;2.30;0.50;;;20.50;82.20;;;;;;5012508;28;20053;-79
2021/09/28 03:46:17;;;;;;;1.48;0.50;;;20.50;82.80;;;;;;4993138;28;20030;-79
2021/09/28 03:48:42;;;;;;;1.52;0.60;;;20.50;82.30;;;;;;5011430;28;20109;-79
2021/09/28 03:51:08;;;;;;;3.80;1.05;;;20.50;82.00;;;;;;5013016;28;20032;-79
2021/09/28 03:53:34;;;;;;;2.88;0.70;;;20.50;82.30;;;;;;5012823;28;20026;-79
2021/09/28 03:56:00;;;;;;;3.95;1.00;;;20.50;82.10;;;;;;5012304;28;20037;-79
2021/09/28 03:58:26;;;;;;;2.33;0.80;;;20.40;82.50;;;;;;5012435;28;20379;-79
2021/09/28 04:00:52;;;;;;;2.22;0.60;;;20.40;82.00;;;;;;5012750;28;20057;-78
2021/09/28 04:03:17;;;;;;;3.53;0.80;;;20.50;81.90;;;;;;5027487;28;20022;-79
2021/09/28 04:05:43;;;;;;;0.93;0.40;;;20.50;82.10;;;;;;5012317;28;20034;-79
2021/09/28 04:08:09;;;;;;;1.75;0.60;;;20.40;81.80;;;;;;5012535;28;20109;-80
2021/09/28 04:10:35;;;;;;;2.50;0.80;;;20.40;81.70;;;;;;5012386;28;20025;-79
2021/09/28 04:13:08;;;;;;;3.47;0.90;;;20.40;82.00;;;;;;5011879;28;20026;-79
2021/09/28 04:15:40;;;;;;;1.80;0.70;;;20.40;81.70;;;;;;5010490;28;20474;-79
2021/09/28 04:18:08;;;;;;;2.13;0.60;;;20.40;82.20;;;;;;5011525;28;20037;-79
2021/09/28 04:20:37;;;;;;;4.20;1.00;;;20.40;81.80;;;;;;5012242;28;20129;-79
2021/09/28 04:23:03;;;;;;;2.88;0.85;;;20.40;82.00;;;;;;5012472;28;20037;-79
2021/09/28 04:25:29;;;;;;;2.35;0.82;;;20.40;81.70;;;;;;5011788;28;20053;-80
2021/09/28 04:27:55;;;;;;;2.65;0.77;;;20.40;81.80;;;;;;5011785;28;20030;-79
2021/09/28 04:30:21;;;;;;;2.67;0.90;;;20.40;81.50;;;;;;5011634;28;20010;-81
2021/09/28 04:32:46;;;;;;;0.98;0.50;;;20.40;81.60;;;;;;5011991;28;20029;-81
2021/09/28 04:35:12;;;;;;;2.72;0.60;;;20.40;81.50;;;;;;5012128;28;20026;-80
2021/09/28 04:37:38;;;;;;;2.53;0.80;;;20.40;81.20;;;;;;5011545;28;20482;-79
2021/09/28 04:40:04;;;;;;;1.85;0.73;;;20.40;81.40;;;;;;5011547;28;20087;-80
2021/09/28 04:42:29;;;;;;;4.00;1.13;;;20.30;81.20;;;;;;5011660;28;20065;-80
2021/09/28 04:44:55;;;;;;;3.75;1.13;;;20.30;81.00;;;;;;5011868;28;20068;-80
2021/09/28 04:47:21;;;;;;;3.20;0.90;;;20.30;81.10;;;;;;5011711;28;20121;-79
2021/09/28 04:49:47;;;;;;;2.65;0.90;;;20.40;81.00;;;;;;5011274;28;20026;-81
2021/09/28 04:52:12;;;;;;;2.65;0.70;;;20.30;81.20;;;;;;5011712;28;20065;-81
2021/09/28 04:54:38;;;;;;;2.88;0.52;;;20.30;80.90;;;;;;5011270;28;20029;-79
2021/09/28 04:57:04;;;;;;;2.10;0.70;;;20.30;81.00;;;;;;5011219;28;20389;-80
2021/09/28 04:59:30;;;;;;;3.20;0.80;;;20.30;80.90;;;;;;5011158;28;20026;-80
2021/09/28 05:01:55;;;;;;;1.92;0.60;;;20.30;80.80;;;;;;5011755;28;20026;-80
2021/09/28 05:04:21;;;;;;;2.05;0.65;;;20.30;80.70;;;;;;5011594;28;20030;-81
2021/09/28 05:06:46;;;;;;;1.88;0.80;;;20.30;80.60;;;;;;5010800;28;20512;-81
2021/09/28 05:09:12;;;;;;;1.65;0.63;;;20.30;80.60;;;;;;5011316;28;20379;-80
2021/09/28 05:11:38;;;;;;;2.08;0.63;;;20.30;80.60;;;;;;5010877;28;20104;-79
2021/09/28 05:14:05;;;;;;;2.13;0.80;;;20.30;80.80;;;;;;5010889;28;20110;-79
2021/09/28 05:16:31;;;;;;;2.58;0.75;;;20.30;80.50;;;;;;5010684;28;20030;-79
2021/09/28 05:18:57;;;;;;;1.63;0.65;;;20.30;80.50;;;;;;5010603;28;20036;-80
2021/09/28 05:21:23;;;;;;;2.22;0.70;;;20.30;80.50;;;;;;5011312;28;20026;-79
2021/09/28 05:23:49;;;;;;;1.90;0.80;;;20.20;80.30;;;;;;5011133;28;20029;-79
2021/09/28 05:26:15;;;;;;;2.92;0.60;;;20.20;80.50;;;;;;5011312;28;20037;-80
2021/09/28 05:28:41;;;;;;;2.33;0.77;;;20.20;80.40;;;;;;5008905;28;20118;-79
2021/09/28 05:31:07;;;;;;;2.83;0.82;;;20.20;80.20;;;;;;5010914;28;20105;-79
2021/09/28 05:33:33;;;;;;;2.85;0.80;;;20.20;80.10;;;;;;5010188;28;20040;-80
2021/09/28 05:35:59;;;;;;;2.63;0.68;;;20.20;80.50;;;;;;5011066;28;20021;-80
2021/09/28 05:38:25;;;;;;;2.65;0.75;;;20.20;80.10;;;;;;5010926;28;20494;-79
2021/09/28 05:40:51;;;;;;;3.22;0.85;;;20.20;80.40;;;;;;5010783;28;20029;-79
2021/09/28 05:43:17;;;;;;;2.47;0.80;;;20.20;80.20;;;;;;5013889;28;20034;-78
2021/09/28 05:45:43;;;;;;;2.40;0.70;;;20.10;80.00;;;;;;5013891;28;20034;-77
2021/09/28 05:48:08;;;;;;;2.60;0.90;;;20.20;80.20;;;;;;5014539;28;20022;-77
2021/09/28 05:50:36;;;;;;;3.60;1.27;;;20.20;80.00;;;;;;5014872;28;20486;-76
2021/09/28 05:53:08;;;;;;;2.33;0.60;;;20.20;79.90;;;;;;5015186;28;20049;-76
2021/09/28 05:55:34;;;;;;;2.60;0.75;;;20.10;79.90;;;;;;5014356;28;20037;-76
2021/09/28 05:58:00;;;;;;;2.15;0.93;;;20.10;79.80;;;;;;5014700;28;20022;-77
2021/09/28 06:00:26;;;;;;;2.45;1.10;;;20.10;79.80;;;;;;5014839;28;20389;-77
2021/09/28 06:02:51;;;;;;;3.15;0.90;;;20.10;79.70;;;;;;5014313;28;20026;-80
2021/09/28 06:05:17;;;;;;;3.90;0.70;;;20.10;79.70;;;;;;5029621;28;20030;-79
2021/09/28 06:07:43;;;;;;;3.33;0.88;;;20.10;79.80;;;;;;5013666;28;20036;-81
2021/09/28 06:10:09;;;;;;;3.00;1.00;;;20.10;80.00;;;;;;5029966;28;20018;-85
2021/09/28 06:12:35;;;;;;;2.75;0.73;;;20.10;80.40;;;;;;5017547;28;20386;-86
2021/09/28 06:15:01;;;;;;;2.53;0.80;;;20.10;80.30;;;;;;5015213;28;20068;-85
2021/09/28 06:17:27;;;;;;;7.05;1.05;;;20.10;80.50;;;;;;5014201;28;20037;-82
2021/09/28 06:19:52;;;;;;;3.92;0.80;;;20.10;80.60;;;;;;5014876;28;20447;-84
2021/09/28 06:22:18;;;;;;;8.05;2.67;;;20.10;81.10;;;;;;5013919;28;20026;-81
2021/09/28 06:24:44;;;;;;;3.03;1.20;;;20.20;81.00;;;;;;5013729;28;20497;-82
2021/09/28 06:27:09;;;;;;;4.93;1.52;;;20.10;81.10;;;;;;5014471;28;20038;-83
2021/09/28 06:29:35;;;;;;;3.67;1.77;;;20.10;81.20;;;;;;5011993;28;20505;-81
2021/09/28 06:32:01;;;;;;;5.30;1.48;;;20.10;81.00;;;;;;5012677;28;20030;-79
2021/09/28 06:34:27;;;;;;;5.65;2.00;;;20.10;80.80;;;;;;5012682;28;20513;-79
2021/09/28 06:36:53;;;;;;;6.25;1.45;;;20.10;80.80;;;;;;5013051;28;20030;-79
2021/09/28 06:39:19;;;;;;;5.22;1.60;;;20.10;80.70;;;;;;5012632;28;20022;-79
2021/09/28 06:41:45;;;;;;;8.25;1.33;;;20.10;80.40;;;;;;5044882;28;20033;-80
2021/09/28 06:44:11;;;;;;;7.65;1.98;;;20.10;80.10;;;;;;5014338;28;20493;-83
2021/09/28 06:46:36;;;;;;;4.53;1.15;;;20.10;80.10;;;;;;5014356;28;20038;-83
2021/09/28 06:49:03;;;;;;;3.85;1.55;;;20.10;80.00;;;;;;5013618;28;20033;-85
2021/09/28 06:51:29;;;;;;;5.25;1.58;;;20.10;80.00;;;;;;5013948;28;20022;-88
2021/09/28 06:53:54;;;;;;;4.15;1.38;;;20.10;79.70;;;;;;5028694;28;20201;-80
2021/09/28 06:56:21;;;;;;;6.35;1.55;;;20.10;79.50;;;;;;5014174;28;20117;-84
2021/09/28 06:58:47;;;;;;;6.30;1.27;;;20.10;79.60;;;;;;5014013;28;20018;-84
2021/09/28 07:01:13;;;;;;;3.45;1.20;;;20.10;79.50;;;;;;5014224;28;20203;-83
2021/09/28 07:03:40;;;;;;;8.50;1.55;;;20.10;79.50;;;;;;5013163;28;20106;-84
2021/09/28 07:06:06;;;;;;;6.95;1.30;;;20.10;79.20;;;;;;5013882;28;20397;-84
2021/09/28 07:08:32;;;;;;;3.25;1.10;;;20.10;79.10;;;;;;5013723;28;20505;-85
2021/09/28 07:10:57;;;;;;;3.92;1.38;;;20.10;79.20;;;;;;5014024;28;20061;-84
2021/09/28 07:13:24;;;;;;;5.35;1.40;;;20.10;79.10;;;;;;5014213;28;20033;-81
2021/09/28 07:15:49;;;;;;;5.90;1.50;;;20.10;78.90;;;;;;5013387;28;20028;-84
2021/09/28 07:18:15;;;;;;;5.78;1.00;;;20.10;78.90;;;;;;5013722;28;20855;-84
2021/09/28 07:20:41;;;;;;;7.25;2.05;;;20.10;78.90;;;;;;5028723;28;20053;-83
2021/09/28 07:23:07;;;;;;;4.43;1.00;;;20.10;78.90;;;;;;5013378;28;20030;-83
2021/09/28 07:25:33;;;;;;;3.20;1.40;;;20.10;79.00;;;;;;5013198;28;20516;-83
2021/09/28 07:28:00;;;;;;;5.07;1.40;;;20.10;78.90;;;;;;5013422;28;20482;-84
2021/09/28 07:30:27;;;;;;;6.75;1.20;;;20.10;79.00;;;;;;5013443;28;20022;-84
2021/09/28 07:32:53;;;;;;;4.60;1.20;;;20.10;78.90;;;;;;5013753;28;20049;-84
2021/09/28 07:35:19;;;;;;;3.15;1.02;;;20.00;78.80;;;;;;5028537;28;20068;-83
2021/09/28 07:37:45;;;;;;;6.28;0.88;;;20.10;78.90;;;;;;5013047;28;20097;-84
2021/09/28 07:40:11;;;;;;;4.03;1.02;;;20.10;79.00;;;;;;5013312;28;20121;-83
2021/09/28 07:42:36;;;;;;;6.22;1.40;;;20.10;78.90;;;;;;5012914;28;20441;-83
2021/09/28 07:45:03;;;;;;;4.55;1.10;;;20.10;78.90;;;;;;5012954;28;20057;-83
2021/09/28 07:47:30;;;;;;;3.55;1.13;;;20.10;78.90;;;;;;5012616;28;20029;-84
2021/09/28 07:49:56;;;;;;;5.13;0.93;;;20.10;78.90;;;;;;5013268;28;20026;-82
2021/09/28 07:52:22;;;;;;;5.38;1.23;;;20.10;78.90;;;;;;5013022;28;20030;-83
2021/09/28 07:54:47;;;;;;;5.07;1.30;;;20.10;78.90;;;;;;5012740;28;20032;-84
2021/09/28 07:57:13;;;;;;;3.55;1.02;;;20.10;78.80;;;;;;5013005;28;20030;-84
2021/09/28 07:59:39;;;;;;;2.47;1.02;;;20.10;78.80;;;;;;5012726;28;20029;-84
2021/09/28 08:02:05;;;;;;;6.20;1.30;;;20.10;78.80;;;;;;5013007;28;20025;-83
2021/09/28 08:04:32;;;;;;;4.82;0.80;;;20.10;78.80;;;;;;5011919;28;20026;-84
2021/09/28 08:07:00;;;;;;;3.08;0.88;;;20.10;78.70;;;;;;5011918;28;20036;-82
2021/09/28 08:09:25;;;;;;;4.38;1.35;;;20.10;78.70;;;;;;5012849;28;20033;-83
2021/09/28 08:11:52;;;;;;;4.03;0.95;;;20.10;78.70;;;;;;5012918;28;20022;-82
2021/09/28 08:14:18;;;;;;;3.15;1.20;;;20.10;78.70;;;;;;5012709;28;20024;-83
2021/09/28 08:16:43;;;;;;;5.28;1.13;;;20.20;78.70;;;;;;5012468;28;20029;-83
2021/09/28 08:19:09;;;;;;;2.15;0.80;;;20.20;78.60;;;;;;5012341;28;20129;-82
2021/09/28 08:21:35;;;;;;;4.20;1.05;;;20.20;78.60;;;;;;5012429;28;20572;-81
2021/09/28 08:24:01;;;;;;;6.18;1.02;;;20.20;78.60;;;;;;5012436;28;20049;-81
2021/09/28 08:29:09;;;;;;;2.90;1.00;;;20.20;78.60;;;;;;5012855;28;20026;-81
2021/09/28 08:31:43;;;;;;;4.57;0.95;;;20.20;78.60;;;;;;5012145;28;20105;-82
2021/09/28 08:34:10;;;;;;;4.25;1.23;;;20.20;78.60;;;;;;5012108;28;20391;-83
2021/09/28 08:36:37;;;;;;;3.88;1.23;;;20.20;78.60;;;;;;5011994;28;20026;-83
2021/09/28 08:39:15;;;;;;;3.50;1.00;;;20.20;78.60;;;;;;5012048;28;20030;-82
2021/09/28 08:41:44;;;;;;;3.90;1.33;;;20.20;78.60;;;;;;5012013;28;20100;-83
2021/09/28 08:44:11;;;;;;;7.03;1.65;;;20.30;78.60;;;;;;5012137;28;20117;-83
2021/09/28 08:46:37;;;;;;;5.18;1.00;;;20.20;78.50;;;;;;5026882;28;20030;-82
2021/09/28 08:49:02;;;;;;;2.90;1.05;;;20.20;78.40;;;;;;5011936;28;20394;-83
2021/09/28 08:51:29;;;;;;;3.58;1.30;;;20.20;78.40;;;;;;5011708;28;20110;-83
2021/09/28 08:53:55;;;;;;;3.42;1.13;;;20.20;78.40;;;;;;5012074;28;20030;-82
2021/09/28 08:56:20;;;;;;;3.58;0.95;;;20.30;78.50;;;;;;5011678;28;20033;-83
2021/09/28 08:58:57;;;;;;;4.40;1.00;;;20.30;78.40;;;;;;5011377;28;20026;-83
2021/09/28 09:01:23;;;;;;;3.10;0.90;;;20.30;78.40;;;;;;5012133;28;20501;-81
2021/09/28 09:03:48;;;;;;;3.38;1.05;;;20.30;78.40;;;;;;5011469;28;20494;-83
2021/09/28 09:06:14;;;;;;;2.45;0.90;;;20.30;78.40;;;;;;5011745;28;20107;-83
2021/09/28 09:08:42;;;;;;;1.85;0.70;;;20.30;78.40;;;;;;5011220;28;20041;-83
2021/09/28 09:11:10;;;;;;;3.85;0.70;;;20.30;78.40;;;;;;5011423;28;20033;-82
2021/09/28 09:13:40;;;;;;;4.53;1.23;;;20.30;79.00;;;;;;5011372;28;20026;-82
2021/09/28 09:16:07;;;;;;;2.47;1.23;;;20.30;78.20;;;;;;5011261;28;20030;-78
2021/09/28 09:18:34;;;;;;;3.17;0.90;;;20.30;78.20;;;;;;5011160;28;20107;-83
2021/09/28 09:21:02;;;;;;;2.25;0.80;;;20.30;78.20;;;;;;5011415;28;20477;-81
2021/09/28 09:23:35;;;;;;;3.10;0.90;;;20.30;78.10;;;;;;5011462;28;20516;-81
2021/09/28 09:26:10;;;;;;;3.28;1.13;;;20.40;78.10;;;;;;5011209;28;20038;-85
2021/09/28 09:28:44;;;;;;;3.10;1.05;;;20.40;78.10;;;;;;5011525;28;20049;-83
2021/09/28 09:31:22;;;;;;;2.25;1.00;;;20.40;78.20;;;;;;5011824;28;20025;-81
2021/09/28 09:33:50;;;;;;;2.45;0.80;;;20.40;78.20;;;;;;5011208;28;20025;-78
2021/09/28 09:36:18;;;;;;;3.15;0.80;;;20.40;78.00;;;;;;5011028;28;20025;-81
2021/09/28 09:38:47;;;;;;;3.05;0.93;;;20.40;78.10;;;;;;5011097;28;20030;-81
2021/09/28 09:41:13;;;;;;;4.35;1.25;;;20.40;78.00;;;;;;5011366;28;20028;-79
2021/09/28 09:43:40;;;;;;;3.10;0.95;;;20.50;78.00;;;;;;5010934;28;20479;-81
2021/09/28 09:46:06;;;;;;;1.90;0.70;;;20.50;78.10;;;;;;5011013;28;20026;-80
2021/09/28 09:48:33;;;;;;;4.22;1.10;;;20.50;78.00;;;;;;5010744;28;20474;-80
2021/09/28 09:51:05;;;;;;;5.47;0.95;;;20.50;78.00;;;;;;5010915;28;20545;-81
2021/09/28 09:53:31;;;;;;;5.40;1.17;;;20.50;77.90;;;;;;5011077;28;20022;-81
2021/09/28 09:55:58;;;;;;;1.70;0.70;;;20.50;77.80;;;;;;5011102;28;20106;-81
2021/09/28 09:58:24;;;;;;;4.00;0.85;;;20.50;77.80;;;;;;5011492;28;20080;-81
2021/09/28 10:00:53;;;;;;;3.30;0.98;;;20.60;77.90;;;;;;5010717;28;20390;-81
2021/09/28 10:03:20;;;;;;;3.08;1.05;;;20.60;77.80;;;;;;5010849;28;20398;-82
2021/09/28 10:05:46;;;;;;;3.70;0.90;;;20.50;77.70;;;;;;5010770;28;20878;-81
2021/09/28 10:08:13;;;;;;;4.30;1.00;;;20.60;77.70;;;;;;5010954;28;20022;-82
2021/09/28 10:10:41;;;;;;;2.35;0.80;;;20.60;77.70;;;;;;5010354;28;20069;-82
2021/09/28 10:13:07;;;;;;;4.50;0.90;;;20.60;77.70;;;;;;5010950;28;20025;-81
2021/09/28 10:15:34;;;;;;;3.55;0.77;;;20.60;77.60;;;;;;5010596;28;20026;-82
2021/09/28 10:18:00;;;;;;;2.22;0.85;;;20.60;77.70;;;;;;5010672;28;20022;-82
2021/09/28 10:20:31;;;;;;;2.72;0.80;;;20.70;77.70;;;;;;5010964;28;20417;-81
2021/09/28 10:23:21;;;;;;;4.85;1.27;;;20.70;77.60;;;;;;5011073;28;20018;-81
2021/09/28 10:25:46;;;;;;;3.08;0.68;;;20.60;77.50;;;;;;5007561;28;20045;-82
2021/09/28 10:28:13;;;;;;;3.25;0.80;;;20.70;77.50;;;;;;5004385;28;20018;-83
2021/09/28 10:30:46;;;;;;;3.70;1.02;;;20.70;77.40;;;;;;5007657;28;20029;-82
2021/09/28 10:33:11;;;;;;;2.92;0.75;;;20.70;77.40;;;;;;5026971;28;20420;-83
2021/09/28 10:35:54;;;;;;;3.58;1.15;;;20.80;77.20;;;;;;5013993;28;20084;-83
2021/09/28 10:38:41;;;;;;;2.95;0.90;;;20.80;77.30;;;;;;5014159;28;20025;-82
2021/09/28 10:41:07;;;;;;;4.45;0.90;;;20.80;77.40;;;;;;5013906;28;20040;-83
2021/09/28 10:43:33;;;;;;;2.53;0.68;;;20.80;77.20;;;;;;5013919;28;20388;-83
2021/09/28 10:46:00;;;;;;;3.55;0.80;;;20.80;77.20;;;;;;5013817;28;20109;-82
2021/09/28 10:48:28;;;;;;;3.97;1.00;;;20.90;77.10;;;;;;5014032;28;20029;-82
2021/09/28 10:51:07;;;;;;;3.15;0.88;;;20.90;77.00;;;;;;5014053;28;20026;-83
2021/09/28 10:53:36;;;;;;;3.00;0.80;;;20.90;77.10;;;;;;5013507;28;20105;-83
2021/09/28 10:56:12;;;;;;;2.08;0.50;;;20.90;77.00;;;;;;5013790;28;20448;-83
2021/09/28 10:58:52;;;;;;;4.72;1.02;;;21.00;77.00;;;;;;5013034;28;20417;-81
2021/09/28 11:01:18;;;;;;;4.68;1.00;;;21.00;77.00;;;;;;5013346;28;20073;-86
2021/09/28 11:03:59;;;;;;;2.08;0.80;;;21.00;76.70;;;;;;5018351;28;20017;-82
2021/09/28 11:06:46;;;;;;;2.95;0.70;;;21.10;76.90;;;;;;5050815;28;20044;-82
2021/09/28 11:09:13;;;;;;;2.63;0.70;;;21.10;77.00;;;;;;5018739;28;20028;-83
2021/09/28 11:11:39;;;;;;;4.25;1.40;;;21.20;77.30;;;;;;5022739;28;20032;-82
2021/09/28 11:14:07;;;;;;;5.45;1.20;;;21.20;77.60;;;;;;5020880;28;20037;-82
2021/09/28 11:16:53;;;;;;;4.47;0.80;;;21.20;77.30;;;;;;5021674;28;20029;-83
2021/09/28 11:19:19;;;;;;;;;;;21.30;77.40;;;;;;5022325;28;20030;-81
2021/09/28 11:21:47;;;;;;;3.83;1.02;;;21.30;77.60;;;;;;5014286;28;20320;-84
2021/09/28 11:24:18;;;;;;;3.75;0.93;;;21.40;78.80;;;;;;5029699;28;20037;-84
2021/09/28 11:26:44;;;;;;;3.35;0.90;;;21.40;78.10;;;;;;5030397;28;20116;-82
2021/09/28 11:29:12;;;;;;;4.28;1.02;;;21.40;77.60;;;;;;5015496;28;20110;-86
2021/09/28 11:31:40;;;;;;;4.50;1.15;;;21.50;77.50;;;;;;5012361;28;20094;-85
2021/09/28 11:34:06;;;;;;;2.83;0.90;;;21.50;77.60;;;;;;5012313;28;20029;-85
2021/09/28 11:36:35;;;;;;;2.20;0.70;;;21.60;77.40;;;;;;5012784;28;20026;-85
2021/09/28 11:39:01;;;;;;;1.92;0.70;;;21.60;77.30;;;;;;5013042;28;20026;-85
2021/09/28 11:41:27;;;;;;;2.80;1.00;;;21.60;77.10;;;;;;5012311;28;20089;-84
2021/09/28 11:43:58;;;;;;;2.55;0.50;;;21.70;76.90;;;;;;5012063;28;20028;-85
2021/09/28 11:46:26;;;;;;;3.55;0.85;;;21.80;76.80;;;;;;5011922;28;20087;-84
2021/09/28 11:48:58;;;;;;;3.10;0.93;;;21.80;76.70;;;;;;5012445;28;20496;-86
2021/09/28 11:51:29;;;;;;;4.28;0.70;;;21.90;76.50;;;;;;5013449;28;20497;-85
2021/09/28 11:54:04;;;;;;;5.32;0.80;;;21.90;76.30;;;;;;5013314;28;20493;-84
2021/09/28 11:56:41;;;;;;;2.47;0.70;;;22.00;76.00;;;;;;5012766;28;20025;-85
2021/09/28 11:59:11;;;;;;;6.18;1.52;;;22.00;76.00;;;;;;5012627;28;20037;-85
2021/09/28 12:01:37;;;;;;;3.78;0.70;;;22.00;76.60;;;;;;5022296;28;20036;-85
2021/09/28 12:09:39;;;;;;;3.65;0.90;;;22.20;75.60;;;;;;5012347;28;20029;-85
2021/09/28 12:12:13;;;;;;;2.38;0.82;;;22.30;75.40;;;;;;5016778;28;20513;-85
2021/09/28 12:14:44;;;;;;;3.35;0.73;;;22.30;75.10;;;;;;5010140;28;20482;-85
2021/09/28 12:17:20;;;;;;;3.33;0.93;;;22.40;75.10;;;;;;5011814;28;20025;-85
2021/09/28 12:19:52;;;;;;;3.25;0.60;;;22.50;74.90;;;;;;5012480;28;20419;-85
2021/09/28 12:22:35;;;;;;;2.58;0.77;;;22.50;74.60;;;;;;5027549;28;20025;-83
2021/09/28 12:25:06;;;;;;;5.20;0.50;;;22.50;74.60;;;;;;5012373;28;20034;-83
2021/09/28 12:27:32;;;;;;;2.65;0.70;;;22.60;74.40;;;;;;5012241;28;20121;-85
2021/09/28 12:29:59;;;;;;;2.40;0.68;;;22.60;74.20;;;;;;5012233;28;20113;-85
2021/09/28 12:32:31;;;;;;;2.05;0.70;;;22.70;74.10;;;;;;5027686;28;20029;-85
2021/09/28 12:35:00;;;;;;;2.30;0.50;;;22.70;73.90;;;;;;5012299;28;20022;-83
2021/09/28 12:37:28;;;;;;;7.32;0.70;;;22.70;74.00;;;;;;5010824;28;20481;-85
2021/09/28 12:40:02;;;;;;;3.15;0.50;;;22.80;73.80;;;;;;5012566;28;20114;-85
2021/09/28 12:42:28;;;;;;;3.03;0.70;;;22.80;73.40;;;;;;5012102;28;20022;-85
2021/09/28 12:45:04;;;;;;;2.03;0.55;;;22.90;73.30;;;;;;5027508;28;20029;-84
2021/09/28 12:47:50;;;;;;;;;;;23.00;73.10;;;;;;5027176;28;20405;-85
2021/09/28 12:50:23;;;;;;;4.30;1.08;;;23.00;72.80;;;;;;5004713;28;19909;-85
2021/09/28 12:53:11;;;;;;;1.65;0.50;;;23.10;72.80;;;;;;5011146;28;20097;-85
2021/09/28 12:55:37;;;;;;;2.40;0.57;;;23.10;72.70;;;;;;5011491;28;20018;-84
2021/09/28 12:58:14;;;;;;;2.65;0.70;;;23.10;72.50;;;;;;5011880;28;20033;-85